Time;durP1;ratioP1;P1;durP2;ratioP2;P2;SDS_P1;SDS_P2;PMS_P1;PMS_P2;Temp;Humidity;BMP_temperature;BMP_pressure;BME280_temperature;BME280_humidity;BME280_pressure;Samples;Min_cycle;Max_cycle;Signal;HPM_P1;HPM_P2
2021/09/21 00:01:41;;;;;;;17.08;4.28;;;23.80;74.00;;;;;;5056296;28;20112;-68
2021/09/21 00:04:07;;;;;;;19.88;3.75;;;23.70;73.80;;;;;;5038453;28;20021;-70
2021/09/21 00:06:33;;;;;;;17.13;3.00;;;23.70;74.30;;;;;;5056279;28;20359;-69
2021/09/21 00:08:59;;;;;;;17.70;3.33;;;23.70;73.30;;;;;;5056182;28;20101;-70
2021/09/21 00:11:25;;;;;;;21.10;3.88;;;23.80;74.30;;;;;;5056299;28;20097;-72
2021/09/21 00:13:50;;;;;;;18.83;3.60;;;23.80;74.30;;;;;;5056019;28;20029;-69
2021/09/21 00:16:16;;;;;;;20.52;3.50;;;23.70;74.40;;;;;;5055925;28;20052;-69
2021/09/21 00:18:42;;;;;;;12.82;3.40;;;23.70;73.80;;;;;;5055940;28;20385;-69
2021/09/21 00:21:08;;;;;;;16.95;3.67;;;23.60;74.20;;;;;;5056107;28;20033;-69
2021/09/21 00:23:34;;;;;;;19.05;3.50;;;23.60;73.60;;;;;;5056094;28;20104;-71
2021/09/21 00:25:59;;;;;;;16.45;3.13;;;23.60;73.70;;;;;;5055738;28;20549;-73
2021/09/21 00:28:25;;;;;;;17.05;3.47;;;23.60;73.60;;;;;;5055853;28;20516;-74
2021/09/21 00:30:52;;;;;;;11.45;3.10;;;23.60;73.40;;;;;;5056030;28;20029;-68
2021/09/21 00:33:21;;;;;;;22.70;3.50;;;23.60;75.20;;;;;;5055980;28;20107;-72
2021/09/21 00:36:03;;;;;;;20.42;3.28;;;23.60;73.90;;;;;;5055782;28;20029;-72
2021/09/21 00:38:29;;;;;;;16.23;3.47;;;23.60;73.80;;;;;;5055627;28;20040;-69
2021/09/21 00:40:55;;;;;;;15.57;3.78;;;23.60;73.60;;;;;;5055788;28;20029;-69
2021/09/21 00:43:22;;;;;;;18.08;4.32;;;23.60;73.50;;;;;;5055545;28;20025;-70
2021/09/21 00:45:54;;;;;;;16.75;3.78;;;23.60;73.90;;;;;;5055549;28;20084;-68
2021/09/21 00:48:21;;;;;;;12.15;3.35;;;23.60;72.40;;;;;;5055986;28;20108;-68
2021/09/21 00:50:47;;;;;;;14.50;3.72;;;23.60;73.60;;;;;;5056115;28;20087;-68
2021/09/21 00:53:13;;;;;;;16.70;3.45;;;23.50;73.80;;;;;;5055379;28;20509;-70
2021/09/21 00:55:39;;;;;;;16.50;3.42;;;23.50;73.80;;;;;;5055273;28;20029;-69
2021/09/21 00:58:05;;;;;;;16.23;3.20;;;23.50;73.60;;;;;;5055546;28;20033;-69
2021/09/21 01:00:31;;;;;;;20.98;3.80;;;23.50;73.80;;;;;;5055164;28;20029;-69
2021/09/21 01:02:57;;;;;;;17.98;3.50;;;23.50;74.10;;;;;;5055641;28;20029;-68
2021/09/21 01:05:23;;;;;;;13.90;3.08;;;23.40;73.70;;;;;;5055175;28;20024;-68
2021/09/21 01:07:51;;;;;;;16.55;2.97;;;23.40;73.90;;;;;;5055260;28;20036;-69
2021/09/21 01:10:22;;;;;;;18.85;3.53;;;23.40;74.10;;;;;;5055163;28;20025;-69
2021/09/21 01:12:48;;;;;;;14.60;3.40;;;23.40;74.10;;;;;;5054939;28;20029;-69
2021/09/21 01:15:14;;;;;;;18.70;3.55;;;23.30;74.20;;;;;;5055166;28;20025;-70
2021/09/21 01:17:40;;;;;;;18.40;3.75;;;23.30;74.30;;;;;;5054783;28;20075;-69
2021/09/21 01:20:07;;;;;;;18.33;3.33;;;23.20;74.90;;;;;;5055113;28;20483;-69
2021/09/21 01:22:33;;;;;;;18.33;3.63;;;23.20;74.90;;;;;;5055075;28;20029;-69
2021/09/21 01:24:59;;;;;;;15.38;3.58;;;23.20;75.20;;;;;;5054502;28;20036;-69
2021/09/21 01:27:24;;;;;;;16.27;2.92;;;23.10;77.40;;;;;;5054897;28;20107;-67
2021/09/21 01:29:50;;;;;;;17.98;3.40;;;23.10;75.70;;;;;;5036859;28;20036;-68
2021/09/21 01:32:19;;;;;;;17.77;3.38;;;23.10;77.40;;;;;;5054795;28;20031;-69
2021/09/21 01:34:45;;;;;;;16.23;3.60;;;23.00;75.50;;;;;;5054475;28;20039;-68
2021/09/21 01:37:13;;;;;;;17.27;3.80;;;23.00;76.40;;;;;;5054611;28;20025;-69
2021/09/21 01:39:39;;;;;;;14.73;3.42;;;23.00;76.50;;;;;;5054343;28;20538;-69
2021/09/21 01:42:05;;;;;;;16.83;3.13;;;23.00;77.80;;;;;;5054402;28;20025;-68
2021/09/21 01:44:30;;;;;;;15.07;3.63;;;23.00;76.40;;;;;;5054305;28;20383;-69
2021/09/21 01:46:58;;;;;;;20.70;3.35;;;22.90;75.80;;;;;;5054416;28;20029;-70
2021/09/21 01:49:25;;;;;;;16.02;4.03;;;22.90;75.80;;;;;;5036250;28;20033;-69
2021/09/21 01:52:07;;;;;;;16.25;3.05;;;22.90;76.10;;;;;;5054017;28;20036;-70
2021/09/21 01:55:05;;;;;;;20.42;3.55;;;22.90;75.70;;;;;;5054198;28;20029;-68
2021/09/21 02:00:15;;;;;;;;;;;22.90;75.30;;;;;;5054694;28;20043;-69
2021/09/21 02:02:41;;;;;;;19.98;4.53;;;22.80;76.20;;;;;;5054204;28;19904;-68
2021/09/21 02:05:07;;;;;;;18.95;3.28;;;22.90;76.00;;;;;;5053967;28;20426;-69
2021/09/21 02:07:33;;;;;;;15.50;3.90;;;22.80;75.60;;;;;;5053970;28;20025;-69
2021/09/21 02:09:58;;;;;;;16.70;3.58;;;22.70;75.90;;;;;;5053911;28;20087;-69
2021/09/21 02:12:24;;;;;;;15.55;3.15;;;22.70;75.10;;;;;;5053929;28;20100;-69
2021/09/21 02:14:50;;;;;;;18.65;3.33;;;22.70;74.90;;;;;;5053755;28;20114;-70
2021/09/21 02:17:15;;;;;;;16.98;3.70;;;22.70;74.30;;;;;;5053826;28;20053;-69
2021/09/21 02:19:41;;;;;;;17.58;3.35;;;22.70;74.70;;;;;;5053694;28;20056;-68
2021/09/21 02:22:07;;;;;;;16.58;3.10;;;22.70;74.70;;;;;;5053535;28;20075;-69
2021/09/21 02:24:33;;;;;;;13.15;3.42;;;22.70;74.80;;;;;;5053686;28;20108;-69
2021/09/21 02:26:59;;;;;;;21.20;3.78;;;22.70;74.20;;;;;;5053459;28;20079;-69
2021/09/21 02:29:26;;;;;;;13.82;3.05;;;22.70;74.50;;;;;;5053467;28;20099;-68
2021/09/21 02:31:52;;;;;;;17.88;3.63;;;22.70;74.70;;;;;;5053176;28;20052;-70
2021/09/21 02:34:17;;;;;;;19.65;3.20;;;22.70;74.90;;;;;;5053582;28;20029;-68
2021/09/21 02:36:44;;;;;;;23.38;3.47;;;22.70;74.50;;;;;;5053348;28;20024;-70
2021/09/21 02:39:10;;;;;;;18.48;3.58;;;22.70;74.40;;;;;;5053492;28;20036;-68
2021/09/21 02:41:37;;;;;;;18.17;3.55;;;22.60;74.70;;;;;;5053515;28;20110;-70
2021/09/21 02:44:03;;;;;;;14.38;3.33;;;22.60;74.60;;;;;;5035247;28;20124;-71
2021/09/21 02:46:28;;;;;;;12.13;2.50;;;22.50;74.60;;;;;;5053330;28;20117;-69
2021/09/21 02:48:54;;;;;;;16.08;3.40;;;22.60;73.90;;;;;;5052915;28;20446;-68
2021/09/21 02:51:20;;;;;;;11.90;2.78;;;22.50;73.60;;;;;;5053349;28;20485;-68
2021/09/21 02:53:45;;;;;;;16.95;3.42;;;22.50;73.20;;;;;;5035182;28;20024;-69
2021/09/21 02:56:14;;;;;;;13.00;3.13;;;22.50;73.30;;;;;;5052925;28;20029;-68
2021/09/21 02:58:43;;;;;;;17.30;3.13;;;22.50;73.10;;;;;;5035217;28;20044;-70
2021/09/21 03:01:10;;;;;;;10.88;2.67;;;22.40;72.30;;;;;;5053070;28;20374;-68
2021/09/21 03:03:44;;;;;;;13.50;3.35;;;22.40;73.70;;;;;;5053236;28;20029;-69
2021/09/21 03:06:19;;;;;;;11.23;2.95;;;22.40;73.10;;;;;;5034834;28;20108;-69
2021/09/21 03:08:45;;;;;;;14.48;3.25;;;22.40;73.50;;;;;;5052682;28;20394;-69
2021/09/21 03:11:18;;;;;;;15.15;3.33;;;22.30;73.40;;;;;;5034831;28;20017;-68
2021/09/21 03:19:08;;;;;;;15.60;3.42;;;22.20;72.50;;;;;;5053067;28;20413;-68
2021/09/21 03:21:34;;;;;;;9.90;2.92;;;22.20;73.70;;;;;;5052744;28;20482;-69
2021/09/21 03:24:00;;;;;;;10.75;2.42;;;22.10;73.80;;;;;;5053226;28;20025;-69
2021/09/21 03:26:26;;;;;;;19.02;3.35;;;22.10;73.70;;;;;;5053041;28;20112;-67
2021/09/21 03:28:51;;;;;;;17.25;3.85;;;22.10;74.30;;;;;;5052919;28;20024;-69
2021/09/21 03:31:17;;;;;;;12.00;3.35;;;22.10;74.00;;;;;;5053028;28;20088;-68
2021/09/21 03:33:43;;;;;;;15.02;2.97;;;22.10;73.60;;;;;;5052725;28;20013;-71
2021/09/21 03:36:08;;;;;;;14.40;3.17;;;22.10;73.80;;;;;;5052456;28;20111;-69
2021/09/21 03:38:34;;;;;;;16.00;3.47;;;22.10;73.60;;;;;;5052727;28;20029;-67
2021/09/21 03:41:00;;;;;;;14.55;3.42;;;22.10;74.20;;;;;;5052505;28;20063;-69
2021/09/21 03:43:26;;;;;;;14.35;3.30;;;22.10;73.60;;;;;;5052789;28;20029;-68
2021/09/21 03:45:51;;;;;;;19.05;3.88;;;22.10;73.60;;;;;;5052364;28;20451;-69
2021/09/21 03:48:17;;;;;;;17.67;3.08;;;22.10;73.50;;;;;;5052630;28;20382;-68
2021/09/21 03:50:43;;;;;;;14.27;3.25;;;22.20;73.50;;;;;;5052524;28;20478;-68
2021/09/21 03:53:08;;;;;;;19.27;3.40;;;22.20;73.20;;;;;;5052804;28;20116;-68
2021/09/21 03:55:34;;;;;;;16.08;3.60;;;22.10;73.30;;;;;;5052762;28;20017;-68
2021/09/21 03:58:00;;;;;;;15.88;3.28;;;22.10;73.50;;;;;;5052509;28;20032;-68
2021/09/21 04:00:25;;;;;;;13.20;3.33;;;22.00;75.30;;;;;;5034570;28;20585;-68
2021/09/21 04:02:51;;;;;;;17.50;3.67;;;22.00;76.50;;;;;;5052278;28;20025;-68
2021/09/21 04:05:17;;;;;;;11.57;3.45;;;22.00;77.90;;;;;;5052451;28;20048;-68
2021/09/21 04:07:42;;;;;;;15.40;3.38;;;21.90;77.30;;;;;;5052295;28;20379;-69
2021/09/21 04:10:09;;;;;;;13.95;3.00;;;21.90;77.50;;;;;;5052422;28;20072;-69
2021/09/21 04:12:35;;;;;;;13.38;2.85;;;21.90;75.50;;;;;;5055422;28;20021;-69
2021/09/21 04:15:03;;;;;;;12.48;3.08;;;21.90;73.80;;;;;;5056034;28;20103;-69
2021/09/21 04:17:29;;;;;;;13.23;2.92;;;21.90;78.40;;;;;;5055864;28;20059;-68
2021/09/21 04:19:54;;;;;;;12.77;2.80;;;21.90;76.80;;;;;;5055823;28;20021;-68
2021/09/21 04:22:20;;;;;;;13.07;3.53;;;21.90;76.70;;;;;;5055911;28;20454;-68
2021/09/21 04:24:46;;;;;;;13.10;2.90;;;21.80;75.50;;;;;;5055679;28;20377;-69
2021/09/21 04:27:12;;;;;;;21.15;3.10;;;21.80;77.10;;;;;;5055789;28;20033;-70
2021/09/21 04:29:38;;;;;;;14.63;3.17;;;21.80;76.60;;;;;;5055800;28;20036;-69
2021/09/21 04:32:03;;;;;;;13.27;3.45;;;21.90;76.00;;;;;;5055808;28;20033;-70
2021/09/21 04:34:30;;;;;;;11.40;3.22;;;21.90;76.20;;;;;;5055645;28;20025;-67
2021/09/21 04:37:02;;;;;;;10.55;3.22;;;21.90;76.20;;;;;;5055485;28;20415;-68
2021/09/21 04:39:28;;;;;;;12.40;2.90;;;21.90;77.40;;;;;;5037566;28;20052;-69
2021/09/21 04:41:53;;;;;;;18.17;3.60;;;21.90;76.00;;;;;;5055437;28;20063;-69
2021/09/21 04:44:19;;;;;;;11.70;3.15;;;21.80;76.20;;;;;;5055596;28;20413;-68
2021/09/21 04:46:45;;;;;;;11.80;2.80;;;21.80;73.10;;;;;;5055267;28;20074;-69
2021/09/21 04:49:13;;;;;;;18.98;4.15;;;21.80;73.00;;;;;;5055660;28;20036;-69
2021/09/21 04:51:40;;;;;;;16.25;3.72;;;21.70;73.30;;;;;;5055555;28;20028;-71
2021/09/21 04:54:05;;;;;;;16.33;3.85;;;21.70;76.60;;;;;;5055461;28;20028;-69
2021/09/21 04:56:31;;;;;;;11.32;3.08;;;21.70;73.50;;;;;;5055136;28;20427;-69
2021/09/21 04:58:57;;;;;;;11.95;2.88;;;21.70;74.90;;;;;;5055077;28;20035;-69
2021/09/21 05:01:23;;;;;;;12.60;3.05;;;21.60;73.50;;;;;;5055122;28;20018;-71
2021/09/21 05:03:48;;;;;;;14.75;3.42;;;21.70;74.70;;;;;;5055069;28;20033;-69
2021/09/21 05:06:14;;;;;;;12.35;3.53;;;21.70;75.20;;;;;;5055239;28;20021;-70
2021/09/21 05:08:40;;;;;;;12.85;3.40;;;21.70;76.40;;;;;;5054956;28;20064;-69
2021/09/21 05:11:06;;;;;;;10.90;3.20;;;21.60;77.40;;;;;;5054804;28;20044;-68
2021/09/21 05:13:32;;;;;;;16.05;3.45;;;21.60;76.30;;;;;;5037272;28;20028;-69
2021/09/21 05:15:57;;;;;;;13.98;3.10;;;21.60;75.50;;;;;;5054781;28;20032;-75
2021/09/21 05:18:23;;;;;;;15.88;3.53;;;21.60;74.30;;;;;;5054614;28;20030;-69
2021/09/21 05:20:49;;;;;;;17.98;3.80;;;21.70;75.30;;;;;;5054630;28;20032;-70
2021/09/21 05:23:15;;;;;;;11.30;3.08;;;21.70;74.20;;;;;;5054274;28;20465;-73
2021/09/21 05:25:41;;;;;;;12.80;3.55;;;21.70;73.80;;;;;;5054760;28;20101;-70
2021/09/21 05:28:07;;;;;;;15.30;4.55;;;21.60;75.10;;;;;;5054563;28;20099;-73
2021/09/21 05:30:33;;;;;;;15.65;4.32;;;21.60;76.50;;;;;;5054623;28;20502;-68
2021/09/21 05:32:59;;;;;;;11.85;3.58;;;21.60;72.20;;;;;;5036365;28;20115;-70
2021/09/21 05:35:25;;;;;;;14.68;3.28;;;21.70;75.80;;;;;;5054303;28;20021;-71
2021/09/21 05:37:50;;;;;;;13.18;3.60;;;21.80;75.60;;;;;;5036601;28;20362;-75
2021/09/21 05:40:16;;;;;;;14.60;3.90;;;21.80;76.00;;;;;;5054463;28;20458;-72
2021/09/21 05:42:43;;;;;;;13.95;4.13;;;21.80;75.30;;;;;;5064897;28;20460;-73
2021/09/21 05:45:09;;;;;;;19.02;3.67;;;21.80;76.80;;;;;;5074160;28;20025;-69
2021/09/21 05:47:37;;;;;;;17.67;3.90;;;21.80;74.60;;;;;;5074377;28;20032;-68
2021/09/21 05:50:04;;;;;;;16.88;3.75;;;21.80;76.40;;;;;;5074206;28;20067;-68
2021/09/21 05:52:29;;;;;;;17.92;3.38;;;21.90;73.20;;;;;;5074367;28;20021;-68
2021/09/21 05:54:55;;;;;;;15.50;3.67;;;22.00;74.40;;;;;;5073950;28;20469;-71
2021/09/21 05:57:21;;;;;;;13.10;3.38;;;22.00;73.90;;;;;;5073917;28;20434;-68
2021/09/21 05:59:46;;;;;;;17.17;4.00;;;22.30;72.90;;;;;;5073760;28;20033;-69
2021/09/21 06:02:12;;;;;;;18.38;3.40;;;22.40;72.10;;;;;;5073907;28;20016;-70
2021/09/21 06:04:38;;;;;;;14.13;3.53;;;22.70;71.00;;;;;;5073622;28;20124;-69
2021/09/21 06:07:03;;;;;;;15.18;3.67;;;22.90;70.10;;;;;;5073654;28;20051;-70
2021/09/21 06:09:29;;;;;;;16.98;3.80;;;23.10;69.50;;;;;;5073519;28;20037;-69
2021/09/21 06:11:55;;;;;;;14.52;3.85;;;23.30;69.00;;;;;;5073333;28;20021;-72
2021/09/21 06:14:20;;;;;;;15.20;3.38;;;23.40;68.20;;;;;;5073758;28;20026;-69
2021/09/21 06:16:46;;;;;;;16.02;4.15;;;23.50;67.90;;;;;;5066348;28;20041;-70
2021/09/21 06:19:12;;;;;;;19.85;3.67;;;23.70;67.40;;;;;;5053668;28;20037;-69
2021/09/21 06:21:38;;;;;;;17.15;4.32;;;23.80;66.90;;;;;;5064409;28;20065;-72
2021/09/21 06:24:04;;;;;;;18.08;3.40;;;24.00;66.10;;;;;;5053601;28;20052;-76
2021/09/21 06:26:31;;;;;;;16.77;3.58;;;24.30;65.80;;;;;;5054652;28;20455;-70
2021/09/21 06:29:00;;;;;;;12.07;3.90;;;24.40;65.40;;;;;;5054222;28;20025;-71
2021/09/21 06:31:26;;;;;;;15.20;4.32;;;24.50;64.80;;;;;;5053575;28;20025;-71
2021/09/21 06:33:52;;;;;;;13.52;3.47;;;24.70;64.20;;;;;;5053312;28;20083;-68
2021/09/21 06:36:18;;;;;;;17.38;4.10;;;24.80;63.50;;;;;;5052815;28;20036;-71
2021/09/21 06:38:43;;;;;;;13.15;3.55;;;24.80;63.30;;;;;;5053753;28;20036;-70
2021/09/21 06:41:09;;;;;;;20.38;3.65;;;25.00;62.90;;;;;;5053483;28;20053;-70
2021/09/21 06:43:35;;;;;;;20.33;4.25;;;25.10;62.70;;;;;;5053203;28;20017;-71
2021/09/21 06:46:00;;;;;;;17.10;4.03;;;25.30;62.10;;;;;;5053309;28;20374;-71
2021/09/21 06:48:27;;;;;;;17.13;3.70;;;25.50;61.90;;;;;;5053242;28;20063;-69
2021/09/21 06:50:53;;;;;;;20.55;4.50;;;25.60;61.20;;;;;;5053358;28;20150;-71
2021/09/21 06:53:19;;;;;;;15.25;3.47;;;25.60;60.80;;;;;;5053110;28;20111;-66
2021/09/21 06:55:45;;;;;;;15.27;3.47;;;25.80;59.70;;;;;;5035133;28;20074;-68
2021/09/21 06:58:11;;;;;;;13.18;3.60;;;25.80;59.20;;;;;;5035362;28;20032;-68
2021/09/21 07:00:38;;;;;;;14.00;4.20;;;25.80;58.90;;;;;;5034298;28;20488;-72
2021/09/21 07:03:11;;;;;;;17.70;3.92;;;25.90;58.50;;;;;;5053194;28;20029;-67
2021/09/21 07:05:37;;;;;;;14.52;3.75;;;25.90;58.40;;;;;;5053220;28;20017;-68
2021/09/21 07:08:03;;;;;;;17.30;3.95;;;25.90;58.00;;;;;;5053175;28;20027;-69
2021/09/21 07:10:28;;;;;;;21.60;5.05;;;25.90;58.20;;;;;;5052856;28;20036;-67
2021/09/21 07:12:57;;;;;;;15.70;3.97;;;26.00;58.00;;;;;;5034553;28;20461;-67
2021/09/21 07:15:23;;;;;;;10.82;2.85;;;26.00;57.20;;;;;;5034889;28;20048;-66
2021/09/21 07:17:55;;;;;;;21.52;4.10;;;26.00;57.30;;;;;;5052879;28;20045;-69
2021/09/21 07:20:25;;;;;;;16.80;4.05;;;25.90;57.00;;;;;;5052714;28;20018;-68
2021/09/21 07:22:52;;;;;;;19.13;4.45;;;25.90;57.10;;;;;;5052905;28;20028;-67
2021/09/21 07:25:18;;;;;;;17.67;3.78;;;25.90;57.40;;;;;;5052402;28;20509;-68
2021/09/21 07:27:45;;;;;;;12.35;2.90;;;25.80;57.40;;;;;;5034562;28;20032;-67
2021/09/21 07:30:12;;;;;;;22.20;5.00;;;25.80;57.20;;;;;;5034687;28;20037;-70
2021/09/21 07:32:38;;;;;;;16.88;4.10;;;25.90;57.50;;;;;;5034327;28;20021;-69
2021/09/21 07:35:05;;;;;;;19.50;4.57;;;26.00;57.00;;;;;;5034287;28;20036;-67
2021/09/21 07:37:31;;;;;;;18.00;4.03;;;26.10;57.10;;;;;;5052509;28;20021;-70
2021/09/21 07:39:58;;;;;;;11.70;3.42;;;26.20;57.50;;;;;;5052311;28;20060;-66
2021/09/21 07:42:24;;;;;;;16.60;3.28;;;26.20;56.60;;;;;;5034204;28;20013;-68
2021/09/21 07:44:50;;;;;;;16.40;4.05;;;26.10;56.40;;;;;;5034308;28;20143;-68
2021/09/21 07:47:15;;;;;;;14.05;3.42;;;26.10;56.70;;;;;;5054939;28;20100;-68
2021/09/21 07:49:42;;;;;;;14.48;3.95;;;26.10;56.50;;;;;;5056165;28;20489;-67
2021/09/21 07:52:08;;;;;;;13.80;3.42;;;26.10;56.00;;;;;;5056310;28;20021;-67
2021/09/21 07:54:34;;;;;;;19.60;3.25;;;26.00;56.20;;;;;;5056117;28;20031;-68
2021/09/21 07:57:01;;;;;;;17.10;4.13;;;25.90;56.20;;;;;;5056331;28;20013;-70
2021/09/21 07:59:27;;;;;;;17.73;3.88;;;25.90;56.80;;;;;;5056106;28;20095;-72
2021/09/21 08:01:53;;;;;;;16.50;4.05;;;25.90;56.60;;;;;;5056083;28;20021;-67
2021/09/21 08:04:18;;;;;;;12.77;3.95;;;25.90;56.80;;;;;;5056155;28;20427;-68
2021/09/21 08:06:44;;;;;;;13.20;3.35;;;25.80;57.10;;;;;;5055821;28;20041;-71
2021/09/21 08:09:10;;;;;;;11.20;2.67;;;25.80;57.30;;;;;;5056009;28;20033;-67
2021/09/21 08:11:36;;;;;;;11.48;3.83;;;25.70;57.10;;;;;;5055788;28;20021;-67
2021/09/21 08:14:04;;;;;;;13.68;3.42;;;25.60;57.40;;;;;;5055545;28;20386;-67
2021/09/21 08:16:30;;;;;;;14.18;3.10;;;25.50;57.50;;;;;;5055435;28;20091;-71
2021/09/21 08:18:56;;;;;;;8.60;3.40;;;25.40;57.90;;;;;;5055543;28;20094;-70
2021/09/21 08:21:25;;;;;;;12.60;3.08;;;25.40;57.80;;;;;;5055155;28;20029;-67
2021/09/21 08:23:51;;;;;;;12.90;3.83;;;25.40;57.70;;;;;;5037981;28;20355;-68
2021/09/21 08:26:17;;;;;;;17.40;3.00;;;25.40;58.10;;;;;;5055484;28;20027;-71
2021/09/21 08:28:43;;;;;;;10.25;2.80;;;25.50;57.90;;;;;;5055680;28;20028;-71
2021/09/21 08:31:08;;;;;;;13.85;3.13;;;25.50;57.70;;;;;;5055899;28;20402;-67
2021/09/21 08:33:34;;;;;;;15.07;3.20;;;25.40;57.50;;;;;;5038107;28;20111;-68
2021/09/21 08:36:00;;;;;;;11.35;3.20;;;25.40;57.40;;;;;;5055368;28;20377;-70
2021/09/21 08:38:26;;;;;;;15.95;2.88;;;25.40;57.40;;;;;;5055677;28;20046;-67
2021/09/21 08:40:52;;;;;;;18.50;2.78;;;25.30;57.50;;;;;;5055883;28;20029;-67
2021/09/21 08:43:18;;;;;;;14.95;3.30;;;25.30;57.70;;;;;;5037701;28;20032;-70
2021/09/21 08:45:43;;;;;;;10.43;2.40;;;25.30;57.50;;;;;;5055241;28;20025;-74
2021/09/21 08:48:12;;;;;;;10.88;2.40;;;25.30;57.10;;;;;;5055526;28;20071;-70
2021/09/21 08:50:38;;;;;;;11.90;2.88;;;25.30;57.20;;;;;;5037170;28;20429;-76
2021/09/21 08:53:04;;;;;;;10.52;2.03;;;25.20;57.10;;;;;;5055137;28;20108;-69
2021/09/21 08:55:29;;;;;;;11.90;2.53;;;25.20;56.60;;;;;;5055191;28;20021;-68
2021/09/21 08:57:57;;;;;;;8.95;2.20;;;25.10;56.70;;;;;;5054324;28;20021;-68
2021/09/21 09:00:26;;;;;;;13.48;2.70;;;25.10;56.50;;;;;;5055095;28;20025;-68
2021/09/21 09:03:09;;;;;;;13.43;2.90;;;25.10;56.80;;;;;;5036809;28;20421;-67
2021/09/21 09:05:49;;;;;;;11.13;2.63;;;25.10;56.70;;;;;;5054489;28;20024;-77
2021/09/21 09:08:30;;;;;;;14.50;2.53;;;25.10;56.90;;;;;;5054821;28;20029;-72
2021/09/21 09:11:19;;;;;;;10.90;2.50;;;25.10;57.00;;;;;;5037861;28;20374;-73
2021/09/21 09:13:51;;;;;;;12.18;2.85;;;25.20;57.30;;;;;;5055006;28;20048;-71
2021/09/21 09:16:18;;;;;;;9.98;2.10;;;25.20;56.90;;;;;;5054375;28;20076;-67
2021/09/21 09:18:47;;;;;;;11.00;2.60;;;25.20;56.30;;;;;;5054694;28;20040;-66
2021/09/21 09:21:19;;;;;;;11.70;2.80;;;25.20;56.00;;;;;;5054624;28;20025;-66
2021/09/21 09:23:53;;;;;;;16.02;3.10;;;25.30;56.20;;;;;;5054486;28;20020;-68
2021/09/21 09:26:23;;;;;;;8.63;2.20;;;25.30;55.20;;;;;;5054459;28;20378;-68
2021/09/21 09:28:52;;;;;;;7.60;2.33;;;25.40;55.10;;;;;;5054360;28;20065;-67
2021/09/21 09:31:29;;;;;;;12.93;2.38;;;25.50;55.00;;;;;;5054634;28;20033;-71
2021/09/21 09:34:13;;;;;;;12.38;2.85;;;25.50;55.40;;;;;;5055146;28;20025;-68
2021/09/21 09:37:02;;;;;;;8.75;2.47;;;25.60;54.20;;;;;;5056021;28;20035;-72
2021/09/21 09:39:30;;;;;;;12.63;2.60;;;25.60;55.50;;;;;;5056180;28;20028;-72
2021/09/21 09:41:57;;;;;;;10.38;2.50;;;25.70;53.50;;;;;;5054400;28;20120;-71
2021/09/21 09:44:30;;;;;;;11.07;2.55;;;25.80;53.00;;;;;;5054729;28;20147;-72
2021/09/21 09:47:03;;;;;;;10.25;2.13;;;25.80;53.20;;;;;;5054524;28;20082;-72
2021/09/21 09:49:36;;;;;;;;;;;25.90;52.60;;;;;;5054762;28;20044;-68
2021/09/21 09:52:13;;;;;;;10.95;2.45;;;25.90;53.00;;;;;;5036174;28;19912;-74
2021/09/21 09:54:47;;;;;;;8.75;1.60;;;25.90;52.10;;;;;;5054129;28;20082;-68
2021/09/21 09:57:14;;;;;;;9.48;2.50;;;25.90;51.60;;;;;;5053891;28;20021;-67
2021/09/21 09:59:41;;;;;;;11.43;2.33;;;26.00;51.60;;;;;;5054151;28;20029;-68
2021/09/21 10:02:07;;;;;;;7.30;1.77;;;26.00;51.30;;;;;;5035944;28;20136;-66
2021/09/21 10:04:33;;;;;;;12.95;2.38;;;26.00;51.20;;;;;;5053609;28;20025;-66
2021/09/21 10:06:59;;;;;;;11.07;2.05;;;26.00;51.60;;;;;;5053648;28;20390;-67
2021/09/21 10:09:25;;;;;;;8.05;2.20;;;26.10;51.50;;;;;;5053494;28;20044;-68
2021/09/21 10:11:55;;;;;;;9.98;2.20;;;26.10;51.40;;;;;;5053526;28;20021;-68
2021/09/21 10:14:22;;;;;;;10.25;2.55;;;26.20;51.30;;;;;;5053365;28;20381;-68
2021/09/21 10:16:53;;;;;;;13.27;2.70;;;26.30;51.20;;;;;;5035180;28;20077;-68
2021/09/21 10:19:21;;;;;;;11.10;2.90;;;26.40;50.80;;;;;;5054103;28;20028;-68
2021/09/21 10:21:49;;;;;;;7.70;2.33;;;26.40;51.30;;;;;;5053513;28;20470;-67
2021/09/21 10:24:15;;;;;;;12.82;2.42;;;26.50;51.50;;;;;;5053398;28;20475;-67
2021/09/21 10:26:44;;;;;;;10.75;2.15;;;26.60;51.60;;;;;;5053264;28;20025;-66
2021/09/21 10:29:10;;;;;;;8.45;1.95;;;26.70;50.90;;;;;;5035930;28;20079;-69
2021/09/21 10:31:38;;;;;;;6.35;1.80;;;26.70;50.20;;;;;;5053682;28;20021;-66
2021/09/21 10:34:17;;;;;;;10.85;2.78;;;26.80;50.60;;;;;;5053201;28;20028;-68
2021/09/21 10:36:54;;;;;;;15.45;3.08;;;26.80;50.40;;;;;;5053121;28;20025;-71
2021/09/21 10:39:22;;;;;;;10.27;2.30;;;26.90;50.10;;;;;;5053084;28;20025;-67
2021/09/21 10:42:02;;;;;;;13.25;2.65;;;27.10;50.50;;;;;;5053086;28;20489;-73
2021/09/21 10:44:29;;;;;;;7.50;2.20;;;27.20;50.30;;;;;;5053468;28;20083;-70
2021/09/21 10:47:03;;;;;;;10.20;2.22;;;27.30;50.10;;;;;;5053301;28;20021;-75
2021/09/21 10:49:32;;;;;;;10.07;2.45;;;27.30;50.00;;;;;;5053089;28;20120;-72
2021/09/21 10:52:04;;;;;;;14.23;3.00;;;27.20;49.80;;;;;;5053006;28;20331;-70
2021/09/21 10:54:35;;;;;;;9.88;2.60;;;27.20;49.80;;;;;;5052886;28;20036;-71
2021/09/21 10:57:31;;;;;;;10.63;2.35;;;27.30;50.20;;;;;;5053177;28;20502;-72
2021/09/21 11:00:01;;;;;;;11.32;2.47;;;27.30;50.30;;;;;;5035221;28;20362;-67
2021/09/21 11:02:37;;;;;;;11.68;2.95;;;27.40;50.00;;;;;;5052921;28;20021;-74
2021/09/21 11:05:05;;;;;;;11.07;2.55;;;27.40;50.10;;;;;;5052795;28;20075;-72
2021/09/21 11:07:31;;;;;;;9.98;2.60;;;27.40;50.20;;;;;;5052725;28;20048;-71
2021/09/21 11:09:58;;;;;;;9.30;2.60;;;27.30;50.20;;;;;;5034732;28;20091;-75
2021/09/21 11:12:25;;;;;;;7.75;2.20;;;27.40;50.10;;;;;;5052646;28;20021;-77
2021/09/21 11:17:26;;;;;;;16.50;2.60;;;27.40;49.90;;;;;;5046396;28;20049;-72
2021/09/21 11:19:55;;;;;;;8.75;2.45;;;27.40;50.00;;;;;;5052588;28;20032;-73
2021/09/21 11:22:27;;;;;;;10.98;2.78;;;27.50;49.90;;;;;;5051866;28;20048;-72
2021/09/21 11:25:21;;;;;;;8.15;2.38;;;27.60;50.10;;;;;;5055161;28;20039;-70
2021/09/21 11:27:47;;;;;;;9.30;2.20;;;27.70;49.70;;;;;;5070093;28;20029;-74
2021/09/21 11:30:15;;;;;;;8.40;2.80;;;27.70;49.80;;;;;;5071799;28;20388;-74
2021/09/21 11:32:45;;;;;;;9.00;2.83;;;27.80;49.90;;;;;;5071711;28;20048;-74
2021/09/21 11:35:12;;;;;;;12.38;2.83;;;27.90;49.90;;;;;;5072001;28;20350;-75
2021/09/21 11:37:46;;;;;;;18.58;3.47;;;27.90;49.50;;;;;;5071823;28;20047;-73
2021/09/21 11:40:33;;;;;;;17.70;2.97;;;28.00;49.40;;;;;;5071763;28;20059;-73
2021/09/21 11:42:59;;;;;;;10.20;2.45;;;28.00;49.20;;;;;;5071965;28;20101;-71
2021/09/21 11:45:27;;;;;;;11.23;2.22;;;27.90;49.70;;;;;;5071804;28;20021;-70
2021/09/21 11:47:53;;;;;;;15.77;3.72;;;27.90;49.80;;;;;;5071717;28;20385;-76
2021/09/21 11:50:22;;;;;;;15.98;3.72;;;27.90;50.60;;;;;;5071478;28;20087;-73
2021/09/21 11:52:53;;;;;;;10.63;2.70;;;27.90;51.50;;;;;;5071694;28;20028;-70
2021/09/21 11:55:21;;;;;;;14.60;3.08;;;27.80;52.20;;;;;;5071732;28;20025;-74
2021/09/21 11:57:49;;;;;;;14.60;3.42;;;27.80;52.90;;;;;;5071744;28;20025;-72
2021/09/21 12:00:32;;;;;;;17.67;3.25;;;27.80;52.80;;;;;;5071732;28;20009;-71
2021/09/21 12:03:02;;;;;;;11.90;2.92;;;27.80;52.80;;;;;;5071695;28;20036;-75
2021/09/21 12:05:28;;;;;;;16.35;3.47;;;27.80;53.10;;;;;;5071738;28;20028;-72
2021/09/21 12:07:55;;;;;;;11.18;2.75;;;27.80;53.20;;;;;;5071303;28;20366;-72
2021/09/21 12:10:24;;;;;;;12.50;2.42;;;27.80;53.00;;;;;;5071433;28;20033;-71
2021/09/21 12:13:04;;;;;;;13.63;3.63;;;27.80;53.20;;;;;;5071930;28;20032;-71
2021/09/21 12:15:30;;;;;;;21.65;3.70;;;27.80;53.20;;;;;;5075591;28;20117;-72
2021/09/21 12:17:57;;;;;;;15.15;2.92;;;27.90;53.20;;;;;;5092086;28;20123;-70
2021/09/21 12:20:25;;;;;;;16.02;3.35;;;27.90;53.30;;;;;;5091855;28;20442;-74
2021/09/21 12:22:53;;;;;;;12.75;3.15;;;27.80;53.40;;;;;;5091924;28;20024;-73
2021/09/21 12:25:21;;;;;;;11.93;2.67;;;27.80;53.40;;;;;;5073684;28;20401;-73
2021/09/21 12:27:54;;;;;;;9.48;2.50;;;27.70;53.50;;;;;;5091635;28;20020;-71
2021/09/21 12:30:28;;;;;;;12.32;2.75;;;27.80;54.30;;;;;;5092246;28;20036;-72
2021/09/21 12:33:02;;;;;;;11.45;2.58;;;27.80;53.40;;;;;;5096167;28;20099;-71
2021/09/21 12:35:34;;;;;;;16.17;2.95;;;27.80;53.40;;;;;;5101214;28;20078;-73
2021/09/21 12:38:26;;;;;;;14.32;2.63;;;27.80;53.70;;;;;;5100700;28;20024;-72
2021/09/21 12:40:52;;;;;;;15.55;3.17;;;27.80;53.70;;;;;;5091041;28;20086;-74
2021/09/21 12:43:20;;;;;;;18.63;3.63;;;27.90;53.90;;;;;;5094803;28;20064;-73
2021/09/21 12:45:50;;;;;;;9.52;2.70;;;27.90;53.60;;;;;;5094918;28;20039;-75
2021/09/21 12:48:15;;;;;;;12.10;3.28;;;27.90;53.80;;;;;;5094895;28;20385;-72
2021/09/21 12:50:43;;;;;;;16.67;3.13;;;27.90;53.90;;;;;;5094714;28;20036;-70
2021/09/21 12:53:19;;;;;;;9.60;2.63;;;27.90;53.40;;;;;;5076815;28;20020;-73